Repubbli Del Brasile — IBZB — position and weather

sailwx.info

Track history (hours):
 
Tides and Currents Weather Stations Pressure Air Temp Water Temp Dewpoint Dewpoint Depression Visibility Wind Speed Wind Dir Waves Ship Positions

Repubbli Del Brasile

Last reported at 2016-May-01 06:15 UTC. Time now 2016-May-01 17:29 UTC.
Position N 38°46' E 008°42'.

Length 209 m; draft 9.7 m.

Type: Ship (hazmat cat B). MMSI: 247310000.

Date/timePositionNaut miles runAvg speedWind from/ knotsBaromVisibWave heightAir tempDewpointWater temp
2016-May-01 06:15N 38°46' E 008°42'1318.0
2016-May-01 05:33N 38°50' E 008°58'1818.4
2016-May-01 04:33N 38°55' E 009°21'22118.0
2016-Apr-30 16:17N 40°18' E 013°46'32 1.3
2016-Apr-29 15:21N 40°32' E 014°24'1214.4
2016-Apr-29 14:33N 40°31' E 014°08'1414.5
2016-Apr-29 13:33N 40°34' E 013°50'1514.6
2016-Apr-29 12:33N 40°39' E 013°32'20214.4
2016-Apr-28 22:33N 42°44' E 010°01'1313.5
2016-Apr-28 21:34N 42°58' E 010°00'1515.0
2016-Apr-28 20:33N 43°12' E 010°06'1514.9
2016-Apr-28 19:34N 43°27' E 010°11'9 8.7
2016-Apr-28 18:33N 43°34' E 010°18'0 0.2
2016-Apr-28 17:31N 43°34' E 010°18'0 0.0
2016-Apr-28 16:28N 43°34' E 010°18'0 0.0
2016-Apr-28 15:33N 43°34' E 010°18'0 0.0
2016-Apr-28 14:30N 43°34' E 010°18'0 0.0
2016-Apr-28 13:24N 43°34' E 010°18'0 0.0
2016-Apr-28 12:32N 43°34' E 010°18'0 0.0
2016-Apr-28 11:29N 43°34' E 010°18'0 0.0
2016-Apr-28 10:31N 43°34' E 010°18'0 0.0
2016-Apr-28 09:31N 43°34' E 010°18'0 0.0
2016-Apr-28 08:33N 43°34' E 010°18'0 0.0
2016-Apr-28 07:33N 43°34' E 010°18'0 0.0
2016-Apr-28 06:33N 43°34' E 010°18'0 0.0
2016-Apr-28 05:26N 43°34' E 010°18'0 0.0
2016-Apr-28 04:29N 43°34' E 010°18'0 0.0
2016-Apr-28 03:31N 43°34' E 010°18'0 0.0
2016-Apr-28 02:28N 43°34' E 010°18'5 5.2
2016-Apr-28 01:33N 43°31' E 010°14'9 8.9
2016-Apr-28 00:33N 43°29' E 010°02'3 3.2
2016-Apr-27 23:33N 43°28' E 010°06'2 2.1
2016-Apr-27 22:33N 43°27' E 010°08'4 3.7
2016-Apr-27 21:34N 43°24' E 010°12'5 4.7
2016-Apr-27 20:33N 43°28' E 010°09'1010.1
2016-Apr-27 19:33N 43°32' E 009°56'1616.0
2016-Apr-27 18:33N 43°41' E 009°38'1615.9
2016-Apr-27 17:33N 43°51' E 009°21'1514.8
2016-Apr-27 16:33N 44°03' E 009°09'1514.9
2016-Apr-27 15:34N 44°17' E 009°01'9 9.0
2016-Apr-27 14:33N 44°24' E 008°53'0 0.0
2016-Apr-27 13:32N 44°24' E 008°53'0 0.0
2016-Apr-27 12:32N 44°24' E 008°53'0 0.0
2016-Apr-27 11:29N 44°24' E 008°53'0 0.0
2016-Apr-27 10:28N 44°24' E 008°53'0 0.0
2016-Apr-27 09:31N 44°24' E 008°53'0 0.0
2016-Apr-27 08:33N 44°24' E 008°53'0 0.0
2016-Apr-27 07:33N 44°24' E 008°53'0 0.0
2016-Apr-27 06:32N 44°24' E 008°53'0 0.0
2016-Apr-27 05:26N 44°24' E 008°53'0 0.0
2016-Apr-27 04:32N 44°24' E 008°53'0 0.0
2016-Apr-27 03:31N 44°24' E 008°53'0 0.0
2016-Apr-27 02:28N 44°24' E 008°53'0 0.0
2016-Apr-27 01:30N 44°24' E 008°53'0 0.0
2016-Apr-27 00:24N 44°24' E 008°53'0 0.0
2016-Apr-26 23:32N 44°24' E 008°53'0 0.0
2016-Apr-26 22:32N 44°24' E 008°53'0 0.0
2016-Apr-26 21:32N 44°24' E 008°53'0 0.0
2016-Apr-26 20:31N 44°24' E 008°53'0 0.0
2016-Apr-26 19:28N 44°24' E 008°53'0 0.0
2016-Apr-26 18:33N 44°24' E 008°53'0 0.0
2016-Apr-26 17:33N 44°24' E 008°53'0 0.0
2016-Apr-26 16:29N 44°24' E 008°53'0 0.0
2016-Apr-26 15:29N 44°24' E 008°53'0 0.0
2016-Apr-26 14:32N 44°24' E 008°53'0 0.0
2016-Apr-26 13:28N 44°24' E 008°53'0 0.0
2016-Apr-26 12:31N 44°24' E 008°53'0 0.0
2016-Apr-26 11:33N 44°24' E 008°53'0 0.0
2016-Apr-26 10:33N 44°24' E 008°53'2 2.3
2016-Apr-26 09:33N 44°23' E 008°56'9 9.2
2016-Apr-26 08:33N 44°15' E 008°51'1716.5
2016-Apr-26 07:33N 44°04' E 008°34'5716.4
2016-Apr-26 04:05N 43°28' E 007°33'916.5
2016-Apr-26 03:33N 43°22' E 007°24'10014.3
2016-Apr-25 20:33N 43°13' E 005°08'1211.6
2016-Apr-25 19:33N 43°21' E 005°19'  
Track history (hours):
 
Tides and Currents Weather Stations Pressure Air Temp Water Temp Dewpoint Dewpoint Depression Visibility Wind Speed Wind Dir Waves Ship Positions

Repubbli Del Brasile

Last reported at 2016-May-01 06:15 UTC. Time now 2016-May-01 17:29 UTC.
Position N 38°46' E 008°42'.

Length 209 m; draft 9.7 m.

Type: Ship (hazmat cat B). MMSI: 247310000.

Date/timePositionNaut miles runAvg speedWind from/ knotsBaromVisibWave heightAir tempDewpointWater temp
2016-May-01 06:15N 38°46' E 008°42'1318.0
2016-May-01 05:33N 38°50' E 008°58'1818.4
2016-May-01 04:33N 38°55' E 009°21'22118.0
2016-Apr-30 16:17N 40°18' E 013°46'32 1.3
2016-Apr-29 15:21N 40°32' E 014°24'1214.4
2016-Apr-29 14:33N 40°31' E 014°08'1414.5
2016-Apr-29 13:33N 40°34' E 013°50'1514.6
2016-Apr-29 12:33N 40°39' E 013°32'20214.4
2016-Apr-28 22:33N 42°44' E 010°01'1313.5
2016-Apr-28 21:34N 42°58' E 010°00'1515.0
2016-Apr-28 20:33N 43°12' E 010°06'1514.9
2016-Apr-28 19:34N 43°27' E 010°11'9 8.7
2016-Apr-28 18:33N 43°34' E 010°18'0 0.2
2016-Apr-28 17:31N 43°34' E 010°18'0 0.0
2016-Apr-28 16:28N 43°34' E 010°18'0 0.0
2016-Apr-28 15:33N 43°34' E 010°18'0 0.0
2016-Apr-28 14:30N 43°34' E 010°18'0 0.0
2016-Apr-28 13:24N 43°34' E 010°18'0 0.0
2016-Apr-28 12:32N 43°34' E 010°18'0 0.0
2016-Apr-28 11:29N 43°34' E 010°18'0 0.0
2016-Apr-28 10:31N 43°34' E 010°18'0 0.0
2016-Apr-28 09:31N 43°34' E 010°18'0 0.0
2016-Apr-28 08:33N 43°34' E 010°18'0 0.0
2016-Apr-28 07:33N 43°34' E 010°18'0 0.0
2016-Apr-28 06:33N 43°34' E 010°18'0 0.0
2016-Apr-28 05:26N 43°34' E 010°18'0 0.0
2016-Apr-28 04:29N 43°34' E 010°18'0 0.0
2016-Apr-28 03:31N 43°34' E 010°18'0 0.0
2016-Apr-28 02:28N 43°34' E 010°18'5 5.2
2016-Apr-28 01:33N 43°31' E 010°14'9 8.9
2016-Apr-28 00:33N 43°29' E 010°02'3 3.2
2016-Apr-27 23:33N 43°28' E 010°06'2 2.1
2016-Apr-27 22:33N 43°27' E 010°08'4 3.7
2016-Apr-27 21:34N 43°24' E 010°12'5 4.7
2016-Apr-27 20:33N 43°28' E 010°09'1010.1
2016-Apr-27 19:33N 43°32' E 009°56'1616.0
2016-Apr-27 18:33N 43°41' E 009°38'1615.9
2016-Apr-27 17:33N 43°51' E 009°21'1514.8
2016-Apr-27 16:33N 44°03' E 009°09'1514.9
2016-Apr-27 15:34N 44°17' E 009°01'9 9.0
2016-Apr-27 14:33N 44°24' E 008°53'0 0.0
2016-Apr-27 13:32N 44°24' E 008°53'0 0.0
2016-Apr-27 12:32N 44°24' E 008°53'0 0.0
2016-Apr-27 11:29N 44°24' E 008°53'0 0.0
2016-Apr-27 10:28N 44°24' E 008°53'0 0.0
2016-Apr-27 09:31N 44°24' E 008°53'0 0.0
2016-Apr-27 08:33N 44°24' E 008°53'0 0.0
2016-Apr-27 07:33N 44°24' E 008°53'0 0.0
2016-Apr-27 06:32N 44°24' E 008°53'0 0.0
2016-Apr-27 05:26N 44°24' E 008°53'0 0.0
2016-Apr-27 04:32N 44°24' E 008°53'0 0.0
2016-Apr-27 03:31N 44°24' E 008°53'0 0.0
2016-Apr-27 02:28N 44°24' E 008°53'0 0.0
2016-Apr-27 01:30N 44°24' E 008°53'0 0.0
2016-Apr-27 00:24N 44°24' E 008°53'0 0.0
2016-Apr-26 23:32N 44°24' E 008°53'0 0.0
2016-Apr-26 22:32N 44°24' E 008°53'0 0.0
2016-Apr-26 21:32N 44°24' E 008°53'0 0.0
2016-Apr-26 20:31N 44°24' E 008°53'0 0.0
2016-Apr-26 19:28N 44°24' E 008°53'0 0.0
2016-Apr-26 18:33N 44°24' E 008°53'0 0.0
2016-Apr-26 17:33N 44°24' E 008°53'0 0.0
2016-Apr-26 16:29N 44°24' E 008°53'0 0.0
2016-Apr-26 15:29N 44°24' E 008°53'0 0.0
2016-Apr-26 14:32N 44°24' E 008°53'0 0.0
2016-Apr-26 13:28N 44°24' E 008°53'0 0.0
2016-Apr-26 12:31N 44°24' E 008°53'0 0.0
2016-Apr-26 11:33N 44°24' E 008°53'0 0.0
2016-Apr-26 10:33N 44°24' E 008°53'2 2.3
2016-Apr-26 09:33N 44°23' E 008°56'9 9.2
2016-Apr-26 08:33N 44°15' E 008°51'1716.5
2016-Apr-26 07:33N 44°04' E 008°34'5716.4
2016-Apr-26 04:05N 43°28' E 007°33'916.5
2016-Apr-26 03:33N 43°22' E 007°24'10014.3
2016-Apr-25 20:33N 43°13' E 005°08'1211.6
2016-Apr-25 19:33N 43°21' E 005°19'  

Dump ship's entire track history